Time;durP1;ratioP1;P1;durP2;ratioP2;P2;SDS_P1;SDS_P2;PMS_P1;PMS_P2;Temp;Humidity;BMP_temperature;BMP_pressure;BME280_temperature;BME280_humidity;BME280_pressure;Samples;Min_cycle;Max_cycle;Signal;HPM_P1;HPM_P2
2023/01/17 00:02:02;;;;;;;6.32;5.30;;;;;;;5.92;79.95;96861.19;5053208;28;20045;-63
2023/01/17 00:10:06;;;;;;;6.55;5.32;;;;;;;5.86;79.11;96857.97;5057074;28;20068;-63
2023/01/17 00:12:33;;;;;;;4.88;4.38;;;;;;;5.84;79.02;96868.59;5052467;28;20059;-63
2023/01/17 00:15:01;;;;;;;6.50;5.00;;;;;;;5.89;79.06;96862.75;5053450;28;20053;-63
2023/01/17 00:17:29;;;;;;;6.18;5.25;;;;;;;5.92;79.38;96875.00;5052114;28;20063;-64
2023/01/17 01:35:27;;;;;;;5.80;4.65;;;;;;;5.67;77.62;96974.84;5036831;28;20086;-64
2023/01/17 01:37:57;;;;;;;4.53;3.63;;;;;;;5.65;77.73;96970.84;5045035;28;20052;-64
2023/01/17 01:40:25;;;;;;;4.72;4.00;;;;;;;5.74;77.95;96959.56;5052252;28;20049;-63
2023/01/17 01:42:55;;;;;;;5.05;3.85;;;;;;;5.72;77.87;96975.69;5047239;28;20053;-63
2023/01/17 01:45:25;;;;;;;4.85;3.88;;;;;;;5.70;77.94;96982.38;5041312;28;20048;-64
2023/01/17 01:47:57;;;;;;;4.70;3.58;;;;;;;5.63;77.60;96979.50;5051857;28;20394;-63
2023/01/17 01:50:24;;;;;;;4.38;3.33;;;;;;;5.55;77.13;96986.06;5052567;28;20433;-64
2023/01/17 01:52:55;;;;;;;4.25;3.65;;;;;;;5.41;77.47;96996.84;5052799;28;20080;-64
2023/01/17 01:55:27;;;;;;;4.68;3.75;;;;;;;5.43;77.53;97006.34;5052209;28;20057;-64
2023/01/17 01:57:59;;;;;;;3.88;3.30;;;;;;;5.51;77.94;97012.78;5051172;28;20052;-64
2023/01/17 02:00:30;;;;;;;3.85;3.17;;;;;;;5.47;78.23;97028.50;5033233;28;20053;-64
2023/01/17 02:03:02;;;;;;;4.18;3.08;;;;;;;5.43;78.45;97022.91;5032315;28;20054;-64
2023/01/17 02:05:33;;;;;;;3.33;2.97;;;;;;;5.38;78.31;97031.47;5032473;28;20050;-63
2023/01/17 02:08:04;;;;;;;4.15;3.05;;;;;;;5.39;78.64;97048.84;5032226;28;20073;-63
2023/01/17 02:10:34;;;;;;;2.28;1.67;;;;;;;5.31;78.24;97055.38;5032596;28;20054;-64
2023/01/17 02:13:03;;;;;;;2.20;1.90;;;;;;;5.25;78.07;97050.16;5050711;28;20049;-63
2023/01/17 02:15:32;;;;;;;2.67;2.35;;;;;;;5.24;79.74;97054.06;5052480;28;20061;-63
2023/01/17 02:18:06;;;;;;;;;;;;;;;5.18;80.36;97057.47;5053013;28;20061;-63
2023/01/17 02:20:57;;;;;;;2.90;2.20;;;;;;;5.19;80.22;97065.41;5052502;28;19925;-63
2023/01/17 02:23:59;;;;;;;3.10;2.42;;;;;;;5.25;79.31;97072.22;5052125;28;20413;-63
2023/01/17 02:26:44;;;;;;;3.25;2.33;;;;;;;5.35;79.32;97079.09;5051869;28;20048;-63
2023/01/17 02:29:37;;;;;;;3.13;2.60;;;;;;;5.33;79.83;97088.91;5053214;28;20052;-63
2023/01/17 02:32:10;;;;;;;5.22;3.70;;;;;;;5.25;79.74;97077.75;5033401;28;20048;-62
2023/01/17 02:34:48;;;;;;;3.30;2.60;;;;;;;5.26;79.39;97082.09;5056285;28;20053;-64
2023/01/17 02:37:20;;;;;;;3.92;3.20;;;;;;;5.20;79.34;97086.28;5056104;28;20063;-63
2023/01/17 02:39:56;;;;;;;4.75;3.45;;;;;;;5.21;79.74;97093.44;5055818;28;20057;-63
2023/01/17 02:42:31;;;;;;;4.68;3.30;;;;;;;5.12;78.70;97094.78;5056139;28;20053;-63
2023/01/17 02:44:58;;;;;;;4.85;3.60;;;;;;;5.06;78.70;97097.03;5055810;28;20057;-63
2023/01/17 02:47:32;;;;;;;6.65;4.18;;;;;;;5.11;78.33;97107.78;5055913;28;20060;-63
2023/01/17 02:50:06;;;;;;;7.13;5.00;;;;;;;5.10;78.08;97125.50;5055881;28;20068;-62
2023/01/17 02:52:53;;;;;;;8.45;5.40;;;;;;;5.06;77.83;97114.41;5055809;28;20063;-63
2023/01/17 02:55:37;;;;;;;7.32;5.32;;;;;;;5.01;77.71;97119.38;5055686;28;20057;-63
2023/01/17 02:58:21;;;;;;;10.40;6.40;;;;;;;5.05;77.46;97109.22;5036561;28;20049;-63
2023/01/17 03:01:03;;;;;;;8.40;5.60;;;;;;;5.07;78.42;97127.00;5055823;28;20489;-64
2023/01/17 03:03:39;;;;;;;5.00;3.75;;;;;;;4.95;77.57;97126.34;5055403;28;20057;-64
2023/01/17 03:06:12;;;;;;;6.78;3.80;;;;;;;4.94;77.21;97130.28;5055579;28;20056;-63
2023/01/17 03:08:40;;;;;;;4.88;3.67;;;;;;;4.85;76.99;97133.19;5055826;28;20489;-63
2023/01/17 03:11:09;;;;;;;5.82;3.22;;;;;;;4.82;77.14;97143.00;5055786;28;20057;-62
2023/01/17 03:13:42;;;;;;;4.07;3.10;;;;;;;4.79;77.00;97153.97;5053784;28;20057;-63
2023/01/17 03:16:14;;;;;;;4.07;2.67;;;;;;;4.70;77.25;97175.38;5038375;28;20054;-63
2023/01/17 03:18:44;;;;;;;6.57;2.88;;;;;;;4.52;79.00;97177.72;5036578;28;20096;-62
2023/01/17 03:21:11;;;;;;;2.75;2.15;;;;;;;4.37;79.68;97187.59;5045441;28;20057;-62
2023/01/17 03:23:38;;;;;;;2.75;1.70;;;;;;;4.21;80.06;97188.34;5035452;28;20061;-63
2023/01/17 03:26:06;;;;;;;1.92;1.02;;;;;;;4.04;80.23;97183.97;5035412;28;20056;-62
2023/01/17 03:28:33;;;;;;;1.52;0.80;;;;;;;3.87;79.60;97189.78;5047711;28;20049;-62
2023/01/17 03:31:00;;;;;;;1.10;0.75;;;;;;;3.58;79.84;97200.00;5054833;28;20412;-62
2023/01/17 03:33:28;;;;;;;1.85;0.82;;;;;;;3.65;80.90;97207.63;5055268;28;20056;-63
2023/01/17 03:35:57;;;;;;;1.70;0.80;;;;;;;3.53;81.47;97211.25;5054887;28;20049;-63
2023/01/17 03:38:25;;;;;;;1.00;0.60;;;;;;;3.51;81.26;97210.81;5054883;28;20409;-63
2023/01/17 03:40:53;;;;;;;1.38;0.73;;;;;;;3.40;81.97;97226.16;5053721;28;20498;-62
2023/01/17 03:43:21;;;;;;;1.40;0.65;;;;;;;3.36;84.08;97226.06;5047691;28;20417;-63
2023/01/17 03:45:50;;;;;;;1.77;0.80;;;;;;;3.41;84.04;97220.31;5054614;28;20053;-62
2023/01/17 03:48:18;;;;;;;1.35;0.80;;;;;;;3.44;83.84;97235.34;5054856;28;20049;-62
2023/01/17 03:50:45;;;;;;;2.20;0.70;;;;;;;3.45;83.84;97245.19;5054674;28;20060;-62
2023/01/17 03:53:14;;;;;;;2.95;0.90;;;;;;;3.50;83.34;97239.44;5054644;28;20065;-62
2023/01/17 03:55:41;;;;;;;2.83;1.00;;;;;;;3.54;83.09;97251.38;5054649;28;20061;-63
2023/01/17 03:58:08;;;;;;;1.65;0.90;;;;;;;3.59;84.38;97244.81;5045408;28;20041;-63
2023/01/17 04:00:35;;;;;;;2.67;1.15;;;;;;;3.51;83.05;97248.50;5053258;28;20414;-62
2023/01/17 04:03:03;;;;;;;2.17;1.10;;;;;;;3.48;83.42;97255.50;5053681;28;20512;-62
2023/01/17 04:05:30;;;;;;;3.55;1.42;;;;;;;3.50;83.71;97255.16;5036226;28;20426;-62
2023/01/17 04:07:57;;;;;;;2.97;1.42;;;;;;;3.63;83.89;97260.31;5034141;28;20054;-62
2023/01/17 04:10:29;;;;;;;3.88;2.00;;;;;;;3.71;83.07;97255.00;5039332;28;20072;-62
2023/01/17 04:12:56;;;;;;;3.15;1.92;;;;;;;3.80;84.17;97259.22;5054621;28;20382;-62
2023/01/17 04:15:24;;;;;;;3.53;1.92;;;;;;;3.81;82.49;97255.31;5054397;28;20057;-62
2023/01/17 04:17:51;;;;;;;4.38;2.88;;;;;;;3.77;82.09;97262.66;5054173;28;20056;-62
2023/01/17 04:20:27;;;;;;;4.00;2.63;;;;;;;3.81;81.83;97269.06;5054279;28;20068;-62
2023/01/17 04:22:54;;;;;;;4.55;3.10;;;;;;;3.88;82.70;97256.66;5054445;28;20422;-63
2023/01/17 04:25:21;;;;;;;5.30;3.47;;;;;;;3.91;82.79;97254.03;5053990;28;20060;-63
2023/01/17 04:27:50;;;;;;;4.57;3.47;;;;;;;3.92;81.70;97255.59;5053865;28;20485;-62
2023/01/17 04:30:19;;;;;;;7.10;2.92;;;;;;;3.95;82.62;97267.88;5054037;28;20493;-62
2023/01/17 04:32:46;;;;;;;5.43;2.95;;;;;;;3.96;82.34;97261.22;5053691;28;20049;-62
2023/01/17 04:35:13;;;;;;;3.88;2.58;;;;;;;3.96;82.41;97263.97;5053869;28;20057;-62
2023/01/17 04:37:41;;;;;;;3.60;2.92;;;;;;;3.84;80.93;97267.56;5053946;28;20045;-62
2023/01/17 04:40:10;;;;;;;5.20;3.08;;;;;;;3.83;81.60;97271.47;5053671;28;20517;-62
2023/01/17 04:42:37;;;;;;;4.70;2.80;;;;;;;3.82;80.80;97280.88;5053998;28;20064;-62
2023/01/17 04:45:07;;;;;;;4.40;3.45;;;;;;;3.63;80.60;97282.31;5053484;28;20413;-62
2023/01/17 04:47:35;;;;;;;5.30;3.63;;;;;;;3.74;80.41;97270.81;5053796;28;20053;-62
2023/01/17 04:50:02;;;;;;;5.53;4.22;;;;;;;3.74;81.78;97273.56;5042769;28;20057;-62
2023/01/17 04:52:29;;;;;;;7.80;5.10;;;;;;;3.78;81.76;97277.22;5033266;28;20399;-63
2023/01/17 04:54:56;;;;;;;6.45;5.13;;;;;;;3.78;81.29;97282.72;5033667;28;20057;-62
2023/01/17 04:57:24;;;;;;;7.82;5.60;;;;;;;3.80;82.03;97291.44;5033423;28;20060;-62
2023/01/17 04:59:55;;;;;;;10.10;7.30;;;;;;;3.80;81.65;97294.19;5033337;28;20050;-62
2023/01/17 05:02:24;;;;;;;9.18;7.20;;;;;;;3.89;80.73;97289.34;5046112;28;20401;-62
2023/01/17 05:04:56;;;;;;;8.75;6.93;;;;;;;3.95;80.90;97296.22;5053048;28;20440;-61
2023/01/17 05:07:23;;;;;;;7.20;6.07;;;;;;;3.99;81.49;97293.56;5053260;28;20057;-62
2023/01/17 05:09:51;;;;;;;10.35;7.00;;;;;;;4.11;81.45;97301.00;5049130;28;20413;-61
2023/01/17 05:12:18;;;;;;;9.80;6.97;;;;;;;4.07;81.35;97296.19;5035632;28;20049;-62
2023/01/17 05:14:45;;;;;;;8.70;7.00;;;;;;;4.13;81.16;97302.22;5041415;28;20410;-61
2023/01/17 05:17:12;;;;;;;8.95;6.03;;;;;;;4.14;81.23;97311.31;5033291;28;20057;-61
2023/01/17 05:19:41;;;;;;;9.70;7.07;;;;;;;4.23;81.40;97306.44;5048373;28;20059;-61
2023/01/17 05:22:14;;;;;;;14.15;8.32;;;;;;;4.32;81.43;97306.31;5053196;28;20060;-61
2023/01/17 05:24:42;;;;;;;9.27;7.03;;;;;;;4.30;80.57;97322.38;5053166;28;20414;-61
2023/01/17 05:27:11;;;;;;;11.45;8.65;;;;;;;4.38;81.19;97316.72;5053225;28;20523;-61
2023/01/17 05:29:38;;;;;;;9.73;6.60;;;;;;;4.37;80.07;97323.38;5052593;28;20061;-62
2023/01/17 05:32:06;;;;;;;11.32;6.85;;;;;;;4.35;80.03;97322.94;5037932;28;20049;-61
2023/01/17 05:34:33;;;;;;;10.63;7.30;;;;;;;4.39;80.29;97329.34;5032663;28;20057;-61
2023/01/17 05:37:02;;;;;;;8.55;6.80;;;;;;;4.40;79.41;97325.44;5050893;28;20045;-61
2023/01/17 05:39:29;;;;;;;8.43;6.68;;;;;;;4.39;79.20;97334.03;5052291;28;20049;-61
2023/01/17 05:41:57;;;;;;;11.10;7.40;;;;;;;4.44;79.10;97339.31;5052793;28;20393;-61
2023/01/17 05:44:26;;;;;;;11.32;7.25;;;;;;;4.42;79.21;97338.88;5052524;28;20052;-61
2023/01/17 05:46:53;;;;;;;11.77;7.93;;;;;;;4.41;79.60;97345.50;5052172;28;20053;-61
2023/01/17 05:49:21;;;;;;;10.05;5.70;;;;;;;4.16;79.23;97340.13;5051699;28;20060;-62
2023/01/17 05:51:48;;;;;;;12.52;7.13;;;;;;;4.28;79.31;97347.50;5033803;28;20137;-62
2023/01/17 05:54:17;;;;;;;12.95;7.40;;;;;;;4.22;78.71;97338.72;5051609;28;20049;-62
2023/01/17 05:56:44;;;;;;;10.97;7.60;;;;;;;4.18;78.69;97340.56;5052377;28;20481;-62
2023/01/17 05:59:12;;;;;;;10.65;7.45;;;;;;;4.25;79.08;97349.03;5051941;28;20504;-62
2023/01/17 06:01:39;;;;;;;12.18;7.50;;;;;;;4.34;79.90;97357.13;5048755;28;21349;-64
2023/01/17 06:04:06;;;;;;;14.65;9.18;;;;;;;4.36;79.61;97354.03;5049579;28;20048;-62
2023/01/17 06:06:33;;;;;;;13.25;7.35;;;;;;;4.32;78.96;97362.19;5045124;28;20417;-63
2023/01/17 06:09:01;;;;;;;14.25;8.80;;;;;;;4.44;79.55;97366.88;5045657;28;20060;-63
2023/01/17 06:11:29;;;;;;;12.15;7.50;;;;;;;4.41;79.47;97371.13;5051947;28;20049;-63
2023/01/17 06:13:56;;;;;;;12.10;7.10;;;;;;;4.35;79.10;97372.53;5045160;28;20053;-64
2023/01/17 06:16:24;;;;;;;9.55;6.47;;;;;;;4.20;78.58;97381.50;5033867;28;20064;-64
2023/01/17 06:18:51;;;;;;;11.70;6.88;;;;;;;4.25;78.51;97373.03;5050367;28;20049;-63
2023/01/17 06:21:18;;;;;;;10.85;6.85;;;;;;;4.21;78.61;97388.66;5047805;28;20052;-63
2023/01/17 06:23:46;;;;;;;12.30;6.95;;;;;;;4.17;79.51;97394.03;5048567;28;20053;-63
2023/01/17 06:26:13;;;;;;;8.13;6.32;;;;;;;4.11;78.81;97392.69;5047578;28;20044;-64
2023/01/17 06:28:41;;;;;;;8.68;6.78;;;;;;;4.05;79.21;97388.56;5052457;28;20060;-64
2023/01/17 06:31:09;;;;;;;9.30;6.32;;;;;;;4.03;78.66;97388.91;5051663;28;20045;-64
2023/01/17 06:33:36;;;;;;;10.48;6.65;;;;;;;3.96;78.71;97388.69;5051955;28;20049;-63
2023/01/17 06:36:04;;;;;;;10.30;6.68;;;;;;;3.87;78.85;97401.78;5052198;28;20057;-63
2023/01/17 06:38:31;;;;;;;9.45;6.28;;;;;;;3.90;78.56;97395.56;5044462;28;20049;-61
2023/01/17 06:40:59;;;;;;;11.57;7.10;;;;;;;3.96;79.06;97401.66;5051473;28;20493;-61
2023/01/17 06:43:31;;;;;;;8.82;6.15;;;;;;;3.88;78.23;97400.63;5042003;28;20053;-61
2023/01/17 06:46:00;;;;;;;12.32;6.28;;;;;;;3.82;78.71;97397.31;5051848;28;20060;-61
2023/01/17 06:48:27;;;;;;;10.52;6.97;;;;;;;3.81;78.27;97397.66;5051734;28;20485;-60
2023/01/17 06:50:56;;;;;;;10.98;6.88;;;;;;;3.77;78.21;97407.75;5049534;28;20045;-63
2023/01/17 06:53:24;;;;;;;9.27;6.37;;;;;;;3.77;77.83;97410.50;5047598;28;20061;-63
2023/01/17 06:55:51;;;;;;;11.50;7.35;;;;;;;3.75;79.02;97410.84;5047460;28;20481;-63
2023/01/17 06:58:18;;;;;;;11.18;7.47;;;;;;;3.81;78.75;97416.94;5048418;28;20053;-63
2023/01/17 07:00:45;;;;;;;13.68;7.60;;;;;;;3.76;79.20;97417.16;5048547;28;20417;-63
2023/01/17 07:03:19;;;;;;;9.25;6.32;;;;;;;3.82;78.74;97426.78;5048822;28;20049;-61
2023/01/17 07:05:48;;;;;;;11.93;6.75;;;;;;;3.84;78.54;97419.81;5048468;28;20053;-61
2023/01/17 07:08:16;;;;;;;11.82;6.63;;;;;;;3.86;78.33;97422.19;5047242;28;20140;-61
2023/01/17 07:10:44;;;;;;;11.82;6.68;;;;;;;3.79;78.14;97428.28;5047299;28;20048;-61
2023/01/17 07:13:11;;;;;;;9.88;6.50;;;;;;;3.88;78.89;97430.13;5048459;28;20060;-61
2023/01/17 07:15:39;;;;;;;10.32;6.07;;;;;;;3.89;78.68;97432.53;5049317;28;20056;-60
2023/01/17 07:18:07;;;;;;;9.57;6.55;;;;;;;3.84;79.09;97430.00;5051516;28;20049;-62
2023/01/17 07:20:37;;;;;;;11.70;6.38;;;;;;;3.85;79.39;97432.41;5047319;28;20060;-61
2023/01/17 07:23:04;;;;;;;9.98;6.28;;;;;;;3.89;79.17;97423.47;5045665;28;20438;-61
2023/01/17 07:25:32;;;;;;;11.73;6.50;;;;;;;3.99;79.66;97440.34;5044555;28;20052;-60
2023/01/17 07:28:00;;;;;;;9.32;6.30;;;;;;;3.97;78.59;97439.03;5045723;28;20061;-61
2023/01/17 07:30:27;;;;;;;11.40;6.13;;;;;;;3.83;78.79;97428.41;5050308;28;20049;-63
2023/01/17 07:32:55;;;;;;;11.73;6.65;;;;;;;3.87;78.10;97434.81;5049316;28;20061;-64
2023/01/17 07:35:25;;;;;;;12.85;6.43;;;;;;;3.83;78.73;97437.47;5042079;28;20064;-64
2023/01/17 07:37:54;;;;;;;14.35;7.97;;;;;;;3.74;78.43;97439.53;5035429;28;20401;-64
2023/01/17 07:40:23;;;;;;;10.43;6.47;;;;;;;3.76;77.71;97437.25;5034775;28;20414;-63
2023/01/17 07:42:50;;;;;;;12.00;7.70;;;;;;;3.71;78.85;97440.22;5035242;28;20053;-63
2023/01/17 07:45:17;;;;;;;11.05;7.90;;;;;;;3.35;78.68;97444.53;5034831;28;20049;-67
2023/01/17 07:47:45;;;;;;;15.60;7.97;;;;;;;3.34;79.39;97442.94;5035155;28;20079;-67
2023/01/17 07:50:13;;;;;;;14.60;8.73;;;;;;;3.35;79.17;97438.22;5034766;28;20049;-66
2023/01/17 07:52:40;;;;;;;16.27;8.65;;;;;;;3.50;77.87;97440.31;5035140;28;20061;-66
2023/01/17 07:55:10;;;;;;;15.73;9.55;;;;;;;3.64;78.92;97442.75;5034890;28;20061;-66
2023/01/17 07:57:37;;;;;;;16.83;8.57;;;;;;;3.62;77.09;97443.06;5035450;28;20053;-64
2023/01/17 08:00:06;;;;;;;18.15;10.98;;;;;;;3.84;76.72;97447.34;5034229;28;20057;-63
2023/01/17 08:02:33;;;;;;;13.63;9.40;;;;;;;3.97;76.14;97450.88;5034206;28;20049;-63
2023/01/17 08:05:00;;;;;;;13.65;9.40;;;;;;;4.05;75.77;97447.22;5034691;28;20049;-64
2023/01/17 08:07:28;;;;;;;17.83;9.90;;;;;;;3.98;74.97;97455.22;5034122;28;20053;-63
2023/01/17 08:09:55;;;;;;;18.70;10.30;;;;;;;3.92;75.98;97448.34;5051023;28;20053;-64
2023/01/17 08:12:25;;;;;;;18.17;11.60;;;;;;;4.18;75.45;97452.69;5053959;28;20060;-63
2023/01/17 08:14:52;;;;;;;17.48;11.20;;;;;;;4.40;75.19;97454.94;5054303;28;20067;-64
2023/01/17 08:17:20;;;;;;;16.75;11.25;;;;;;;4.35;74.79;97455.19;5053892;28;20072;-62
2023/01/17 08:19:50;;;;;;;17.55;10.75;;;;;;;4.26;75.35;97449.81;5054179;28;20058;-61
2023/01/17 08:22:18;;;;;;;15.70;11.55;;;;;;;4.44;74.25;97447.59;5053978;28;20413;-61
2023/01/17 08:24:45;;;;;;;14.02;9.60;;;;;;;4.58;74.86;97447.22;5053867;28;20057;-61
2023/01/17 08:27:12;;;;;;;15.80;11.68;;;;;;;4.68;74.91;97446.72;5052768;28;20482;-61
2023/01/17 08:29:45;;;;;;;17.52;11.50;;;;;;;4.63;74.36;97449.72;5053469;28;20061;-61
2023/01/17 08:32:13;;;;;;;14.77;10.13;;;;;;;4.77;74.05;97445.78;5053625;28;20060;-61
2023/01/17 08:34:40;;;;;;;21.52;11.93;;;;;;;4.68;73.00;97448.66;5053547;28;20067;-61
2023/01/17 08:37:07;;;;;;;20.42;11.68;;;;;;;4.73;73.86;97448.44;5053722;28;20056;-61
2023/01/17 08:39:34;;;;;;;15.57;10.95;;;;;;;4.64;72.84;97437.56;5052991;28;20049;-61
2023/01/17 08:42:02;;;;;;;19.08;10.90;;;;;;;4.60;72.51;97453.19;5052051;28;20053;-61
2023/01/17 08:44:29;;;;;;;16.52;11.02;;;;;;;4.69;73.01;97453.03;5033764;28;20064;-61
2023/01/17 08:46:58;;;;;;;16.10;10.63;;;;;;;4.79;71.89;97447.03;5033519;28;20056;-60
2023/01/17 08:49:25;;;;;;;17.33;11.55;;;;;;;4.48;71.20;97448.50;5033234;28;20053;-61
2023/01/17 08:51:52;;;;;;;17.15;11.13;;;;;;;4.44;72.29;97455.84;5033581;28;20497;-60
2023/01/17 08:54:21;;;;;;;16.77;11.63;;;;;;;4.57;72.24;97461.34;5033396;28;20417;-60
2023/01/17 08:56:48;;;;;;;16.33;10.73;;;;;;;4.45;72.92;97454.72;5033635;28;20068;-60
2023/01/17 08:59:16;;;;;;;14.02;9.75;;;;;;;4.85;71.61;97464.09;5034194;28;20057;-60
2023/01/17 09:01:44;;;;;;;16.48;11.82;;;;;;;4.77;71.84;97459.56;5046305;28;20488;-59
2023/01/17 09:04:13;;;;;;;13.35;8.55;;;;;;;4.81;71.13;97466.78;5053275;28;20060;-62
2023/01/17 09:06:44;;;;;;;14.07;8.63;;;;;;;5.62;69.94;97452.75;5053055;28;20053;-62
2023/01/17 09:09:12;;;;;;;14.30;8.73;;;;;;;7.06;66.37;97448.50;5052782;28;20052;-62
2023/01/17 09:11:39;;;;;;;17.63;9.70;;;;;;;7.75;62.75;97445.00;5052703;28;20405;-61
2023/01/17 09:14:07;;;;;;;9.85;8.05;;;;;;;6.87;63.00;97451.28;5053175;28;20067;-62
2023/01/17 09:16:34;;;;;;;15.65;8.35;;;;;;;9.33;58.79;97447.97;5052223;28;20429;-60
2023/01/17 09:19:01;;;;;;;12.23;7.75;;;;;;;9.96;56.53;97439.84;5052970;28;20390;-60
2023/01/17 09:21:30;;;;;;;10.50;8.38;;;;;;;9.60;58.59;97455.41;5052516;28;20045;-60
2023/01/17 09:23:57;;;;;;;12.77;8.30;;;;;;;10.33;59.41;97447.28;5052661;28;20064;-61
2023/01/17 09:26:26;;;;;;;11.05;8.23;;;;;;;9.29;60.23;97460.25;5052735;28;20075;-61
2023/01/17 09:28:54;;;;;;;13.38;8.63;;;;;;;8.67;60.37;97472.59;5052819;28;20052;-61
2023/01/17 09:31:23;;;;;;;11.27;7.85;;;;;;;8.24;61.49;97466.38;5052159;28;20060;-62
2023/01/17 09:33:51;;;;;;;11.15;7.97;;;;;;;8.21;61.20;97467.13;5051725;28;20064;-61
2023/01/17 09:36:19;;;;;;;9.50;7.90;;;;;;;8.17;63.25;97469.03;5052514;28;20053;-62
2023/01/17 09:38:48;;;;;;;11.80;8.10;;;;;;;8.32;62.91;97461.75;5051676;28;20056;-61
2023/01/17 09:41:26;;;;;;;10.85;8.07;;;;;;;8.66;63.13;97470.19;5052465;28;20060;-62
2023/01/17 09:44:00;;;;;;;14.40;8.73;;;;;;;11.25;58.22;97462.84;5052330;28;20136;-62
2023/01/17 09:46:30;;;;;;;8.80;7.25;;;;;;;12.87;53.09;97468.50;5052153;28;20056;-63
2023/01/17 09:49:04;;;;;;;13.60;8.32;;;;;;;14.56;51.38;97466.31;5052512;28;20450;-62
2023/01/17 09:51:31;;;;;;;10.45;7.15;;;;;;;16.17;49.45;97457.88;5051460;28;20056;-63
2023/01/17 09:54:01;;;;;;;12.75;7.03;;;;;;;16.96;48.68;97459.28;5052533;28;20056;-63
2023/01/17 09:56:31;;;;;;;12.45;6.10;;;;;;;16.54;45.79;97469.28;5051946;28;20064;-64
2023/01/17 09:59:26;;;;;;;10.23;6.78;;;;;;;13.85;45.83;97476.06;5052402;28;20516;-63
2023/01/17 10:02:05;;;;;;;9.40;6.25;;;;;;;12.60;50.15;97477.38;5050148;28;20049;-63
2023/01/17 10:04:50;;;;;;;8.40;6.68;;;;;;;11.74;51.24;97480.91;5052056;28;20062;-64
2023/01/17 10:07:33;;;;;;;10.52;7.82;;;;;;;11.79;53.01;97474.16;5051580;28;20057;-63
2023/01/17 10:10:20;;;;;;;11.60;6.38;;;;;;;15.04;44.71;97463.81;5058143;28;20052;-63
2023/01/17 10:12:56;;;;;;;9.77;6.05;;;;;;;13.28;46.71;97471.56;5051810;28;20461;-63
2023/01/17 10:15:37;;;;;;;9.15;7.28;;;;;;;15.11;45.36;97464.53;5052137;28;20060;-63
2023/01/17 10:18:23;;;;;;;14.82;8.18;;;;;;;13.28;47.74;97463.16;5052311;28;20057;-63
2023/01/17 10:20:54;;;;;;;9.98;7.80;;;;;;;12.54;51.35;97465.81;5052045;28;20053;-63
2023/01/17 10:23:46;;;;;;;9.02;6.85;;;;;;;12.13;50.39;97471.00;5052258;28;20473;-62
2023/01/17 10:26:20;;;;;;;11.60;6.72;;;;;;;11.87;52.14;97474.97;5048915;28;20421;-62
2023/01/17 10:28:50;;;;;;;12.48;7.40;;;;;;;11.64;52.24;97467.75;5052080;28;20053;-62
2023/01/17 10:31:21;;;;;;;;;;;;;;;10.66;51.52;97476.13;5044136;28;20414;-63
2023/01/17 10:33:51;;;;;;;11.10;7.75;;;;;;;10.59;55.13;97479.66;5031876;28;19921;-63
2023/01/17 10:36:21;;;;;;;10.45;7.05;;;;;;;10.94;52.55;97467.09;5032243;28;20054;-62
2023/01/17 10:38:50;;;;;;;10.32;5.97;;;;;;;11.43;51.75;97468.50;5031796;28;20398;-62
2023/01/17 10:41:25;;;;;;;8.57;5.93;;;;;;;11.42;51.84;97466.88;5032110;28;20049;-62
2023/01/17 10:44:04;;;;;;;8.32;6.10;;;;;;;13.37;45.80;97468.34;5031907;28;20532;-62
2023/01/17 10:46:35;;;;;;;9.73;6.50;;;;;;;16.17;44.66;97455.06;5031463;28;20490;-63
2023/01/17 10:49:03;;;;;;;7.40;5.32;;;;;;;20.66;37.14;97452.34;5032169;28;20501;-62
2023/01/17 10:51:43;;;;;;;9.82;5.40;;;;;;;23.10;34.93;97457.88;5034992;28;20060;-63
2023/01/17 10:54:23;;;;;;;7.03;4.93;;;;;;;23.37;33.63;97450.59;5035815;28;20056;-62
2023/01/17 10:56:52;;;;;;;8.52;5.85;;;;;;;26.53;31.93;97448.63;5035284;28;20057;-63
2023/01/17 10:59:28;;;;;;;7.18;5.00;;;;;;;25.88;30.38;97457.19;5047954;28;20057;-62
2023/01/17 11:01:55;;;;;;;6.18;4.55;;;;;;;23.91;31.33;97468.81;5060293;28;20492;-63
2023/01/17 11:04:32;;;;;;;9.93;4.82;;;;;;;24.46;27.38;97458.47;5054874;28;20362;-62
2023/01/17 11:07:14;;;;;;;6.78;4.80;;;;;;;23.72;28.33;97458.72;5036072;28;20053;-62
2023/01/17 11:09:43;;;;;;;8.38;4.65;;;;;;;23.03;31.68;97461.00;5035147;28;20050;-66
2023/01/17 11:12:24;;;;;;;8.55;4.32;;;;;;;18.59;34.99;97457.28;5035024;28;20053;-66
2023/01/17 11:15:04;;;;;;;7.78;4.93;;;;;;;22.77;30.57;97456.88;5035288;28;20068;-66
2023/01/17 11:17:33;;;;;;;7.88;4.72;;;;;;;24.45;30.07;97445.50;5035104;28;20164;-65
2023/01/17 11:20:18;;;;;;;6.63;5.03;;;;;;;26.12;24.98;97449.31;5044931;28;20049;-66
2023/01/17 11:23:04;;;;;;;10.13;6.13;;;;;;;26.11;26.77;97446.97;5054877;28;20056;-66
2023/01/17 11:25:33;;;;;;;6.47;5.10;;;;;;;26.67;28.23;97441.34;5054909;28;20413;-66
2023/01/17 11:28:03;;;;;;;;;;;;;;;23.96;25.98;97441.81;5055436;28;20057;-66
2023/01/17 11:30:37;;;;;;;8.88;6.28;;;;;;;26.69;26.85;97439.53;5055215;28;19927;-61
2023/01/17 11:33:20;;;;;;;6.32;5.53;;;;;;;25.32;27.21;97439.84;5052407;28;20056;-65
2023/01/17 11:35:48;;;;;;;6.78;5.78;;;;;;;27.06;28.49;97438.19;5054339;28;20057;-65
2023/01/17 11:38:19;;;;;;;9.02;5.10;;;;;;;25.22;30.59;97442.03;5055038;28;20056;-65
2023/01/17 11:40:48;;;;;;;6.20;4.00;;;;;;;20.36;34.68;97459.41;5054710;28;20048;-63
2023/01/17 11:43:29;;;;;;;7.70;4.57;;;;;;;21.75;31.93;97455.72;5054853;28;20052;-62
2023/01/17 11:46:14;;;;;;;7.82;4.15;;;;;;;18.67;32.44;97459.47;5053694;28;20057;-65
2023/01/17 11:48:41;;;;;;;11.60;9.82;;;;;;;19.94;35.54;97451.06;5054446;28;20053;-65
2023/01/17 11:51:20;;;;;;;7.57;4.20;;;;;;;20.27;34.04;97445.97;5053808;28;20057;-64
2023/01/17 11:53:48;;;;;;;17.02;16.02;;;;;;;21.49;32.43;97444.56;5054220;28;20055;-65
2023/01/17 11:56:30;;;;;;;20.10;18.92;;;;;;;24.06;27.69;97434.78;5054313;28;20053;-65
2023/01/17 11:59:33;;;;;;;10.80;7.43;;;;;;;20.18;31.27;97443.03;5054070;28;20059;-64
2023/01/17 12:02:42;;;;;;;11.20;10.10;;;;;;;22.65;26.92;97433.84;4991653;28;20061;-64
2023/01/17 12:05:33;;;;;;;8.33;3.77;;;;;;;19.63;32.31;97435.44;4937029;28;20415;-65
2023/01/17 12:08:12;;;;;;;7.03;4.63;;;;;;;17.43;35.15;97439.47;5045922;28;20057;-64
2023/01/17 12:10:46;;;;;;;;;;;;;;;15.25;39.56;97429.91;5054180;28;20052;-63
2023/01/17 12:16:30;;;;;;;7.82;4.53;;;;;;;13.72;43.24;97438.59;5059975;28;20064;-62
2023/01/17 12:19:17;;;;;;;7.15;3.88;;;;;;;12.76;44.74;97437.81;5053738;28;20049;-63
2023/01/17 12:21:56;;;;;;;9.18;5.30;;;;;;;14.35;41.25;97435.69;5053737;28;20075;-62
2023/01/17 12:24:50;;;;;;;10.75;9.77;;;;;;;17.35;36.48;97426.00;5053630;28;20049;-64
2023/01/17 12:27:24;;;;;;;6.32;3.50;;;;;;;16.87;35.30;97422.53;5054268;28;20053;-62
2023/01/17 12:30:03;;;;;;;8.18;3.97;;;;;;;15.01;36.21;97432.63;5053180;28;20417;-62
2023/01/17 12:32:53;;;;;;;13.73;12.82;;;;;;;18.52;32.60;97421.63;5053731;28;20056;-62
2023/01/17 12:35:25;;;;;;;9.55;4.32;;;;;;;17.26;32.54;97423.75;5053519;28;20053;-62
2023/01/17 12:38:17;;;;;;;7.95;3.67;;;;;;;15.03;37.72;97420.97;5060551;28;20053;-63
2023/01/17 12:40:49;;;;;;;8.60;4.07;;;;;;;13.26;41.20;97434.03;5052333;28;20055;-64
2023/01/17 12:43:22;;;;;;;6.68;3.50;;;;;;;12.37;42.41;97435.94;5053807;28;20057;-63
2023/01/17 12:45:51;;;;;;;10.38;4.03;;;;;;;11.70;43.63;97441.06;5053424;28;20060;-64
2023/01/17 12:48:22;;;;;;;9.90;4.35;;;;;;;11.29;46.24;97437.81;5053306;28;20052;-64
2023/01/17 12:50:54;;;;;;;10.80;4.43;;;;;;;10.43;45.71;97437.41;5053029;28;20059;-64
2023/01/17 12:53:30;;;;;;;6.78;3.85;;;;;;;10.30;47.28;97436.94;5052811;28;20481;-64
2023/01/17 12:56:03;;;;;;;8.43;4.03;;;;;;;9.82;46.26;97442.50;5053109;28;20812;-65
2023/01/17 12:58:38;;;;;;;8.65;3.92;;;;;;;9.95;47.38;97436.28;5052440;28;20049;-65
2023/01/17 13:01:13;;;;;;;7.05;3.70;;;;;;;9.96;48.03;97453.75;5053124;28;20481;-65
2023/01/17 13:03:52;;;;;;;7.97;3.58;;;;;;;10.04;47.94;97449.84;5052844;28;20393;-64
2023/01/17 13:06:26;;;;;;;8.88;4.20;;;;;;;10.43;48.54;97441.00;5052648;28;20053;-64
2023/01/17 13:08:56;;;;;;;9.43;7.65;;;;;;;12.74;42.88;97429.84;5052983;28;20059;-65
2023/01/17 13:11:27;;;;;;;;;;;;;;;14.76;37.29;97432.09;5053114;28;20056;-65
2023/01/17 13:13:56;;;;;;;17.88;16.88;;;;;;;16.54;35.98;97427.13;5051970;28;19920;-64
2023/01/17 13:16:32;;;;;;;1999.90;999.90;;;;;;;21.42;29.41;97413.69;5052643;28;20052;-65
2023/01/17 13:19:12;;;;;;;1999.90;999.90;;;;;;;23.83;26.11;97409.94;5052587;28;20057;-65
2023/01/17 13:21:41;;;;;;;1999.90;999.90;;;;;;;24.97;24.25;97417.69;5054002;28;20076;-64